Ana Sayfa
METAR-TAF:

METAR-TAF

Havaalanları :

Easton, Maryland, Amerika Birleşik Devletleri

Enlem: 38-48N, Boylam: 076-04W, yükseklik: 22 m

Güncel hava durumu gözlemi

Rapor saat 08:24 UTC de 11 dakika önce yapıldı.
Rüzgar güney/güneydoğudan 6 kt
Sıcaklık 13°C
Nem 94%
Basınç 1017 hPa
Görüş mesafesi: 8.0 km
1500 ft yükseklikte parçalı çok bulutlu
2300 ft yükseklikte çok bulutlu
yağmur

METAR: KESN 280824Z AUTO 15006KT 5SM RA BKN015 OVC023 13/12 A3004 RMK AO2 P0006 T01260117

Saat: 04:35 (08:35 UTC)


TAF: eksik

4.000'den fazla havaalanı için hava durumu gözlemleri ve tahminleri (METAR ve TAF raporları).

Kullanılabilir istasyonlar harita üzerinde sarı ve kırmızı noktalarla gösterilir.

İstasyonun adını görmek için fareyi noktanın üzerinde gezdirin.

Sonrasında hava gözlem ve tahminlerini görmek için tıklayın.

Haritayı değiştirmek için: yaklaştırmak için siyah artı işaretli yeşil düğmeye ve uzaklaştırmak için de eksi işaretli düğmeye hızla tıklayın; bitişik haritalar için yeşil okları kullanın.


METAR-TAF: